Time;durP1;ratioP1;P1;durP2;ratioP2;P2;SDS_P1;SDS_P2;PMS_P1;PMS_P2;Temp;Humidity;BMP_temperature;BMP_pressure;BME280_temperature;BME280_humidity;BME280_pressure;Samples;Min_cycle;Max_cycle;Signal;HPM_P1;HPM_P2
2023/06/18 00:00:43;;;;;;;1.80;1.70;;;;;;;24.49;57.77;98711.47;2070267;28;20691;-50
2023/06/18 00:01:44;;;;;;;1.73;1.58;;;;;;;24.49;58.09;98711.47;2072517;28;20534;-52
2023/06/18 00:02:46;;;;;;;1.70;1.60;;;;;;;24.49;57.92;98706.84;2072139;28;20049;-51
2023/06/18 00:03:46;;;;;;;2.40;1.95;;;;;;;24.50;57.86;98710.38;2069911;28;20088;-51
2023/06/18 00:04:50;;;;;;;2.15;1.60;;;;;;;24.50;58.18;98713.09;2070473;28;20057;-51
2023/06/18 00:05:52;;;;;;;1.98;1.85;;;;;;;24.50;57.55;98708.50;2070832;28;20053;-50
2023/06/18 00:06:54;;;;;;;2.05;1.40;;;;;;;24.50;57.53;98713.09;2071371;28;20504;-51
2023/06/18 00:07:55;;;;;;;1.98;1.77;;;;;;;24.49;57.87;98714.16;2071406;28;20069;-55
2023/06/18 00:08:57;;;;;;;2.33;1.70;;;;;;;24.50;57.99;98707.66;2071437;28;20053;-53
2023/06/18 00:09:58;;;;;;;1.70;1.60;;;;;;;24.49;57.71;98712.28;2071506;28;20049;-53
2023/06/18 00:10:59;;;;;;;2.05;1.85;;;;;;;24.48;57.77;98704.38;2072359;28;20072;-52
2023/06/18 00:12:00;;;;;;;2.92;2.00;;;;;;;24.48;57.70;98704.38;2067174;28;20045;-50
2023/06/18 00:13:02;;;;;;;1.85;1.67;;;;;;;24.49;57.68;98701.44;2073632;28;20045;-49
2023/06/18 00:14:03;;;;;;;2.00;1.88;;;;;;;24.49;58.09;98700.59;2071512;28;20065;-50
2023/06/18 00:15:05;;;;;;;3.50;1.90;;;;;;;24.50;57.87;98702.25;2072094;28;20144;-54
2023/06/18 00:16:06;;;;;;;2.28;2.08;;;;;;;24.48;57.60;98697.06;2070470;28;20062;-53
2023/06/18 00:17:08;;;;;;;3.05;1.83;;;;;;;24.48;58.06;98707.06;2071579;28;20541;-50
2023/06/18 00:18:10;;;;;;;1.75;1.60;;;;;;;24.47;57.67;98697.31;2071081;28;20076;-51
2023/06/18 00:19:11;;;;;;;1.95;1.85;;;;;;;24.48;57.86;98696.22;2070597;28;20103;-56
2023/06/18 00:20:14;;;;;;;2.22;1.85;;;;;;;24.48;57.69;98699.75;2070084;28;20380;-53
2023/06/18 00:21:16;;;;;;;2.28;2.08;;;;;;;24.47;57.58;98694.59;2072221;28;20038;-55
2023/06/18 00:22:17;;;;;;;1.80;1.70;;;;;;;24.46;57.94;98695.66;2071203;28;21372;-50
2023/06/18 00:23:19;;;;;;;2.17;1.98;;;;;;;24.47;57.75;98702.72;2073518;28;20049;-50
2023/06/18 00:24:20;;;;;;;1.80;1.67;;;;;;;24.48;57.60;98701.66;2072623;28;20437;-53
2023/06/18 00:25:21;;;;;;;2.35;2.15;;;;;;;24.47;57.94;98700.03;2072386;28;20050;-51
2023/06/18 00:26:23;;;;;;;2.28;2.08;;;;;;;24.48;57.65;98709.78;2070463;28;20045;-55
2023/06/18 00:27:25;;;;;;;2.13;1.92;;;;;;;24.49;57.89;98704.16;2071247;28;20084;-52
2023/06/18 00:28:26;;;;;;;1.70;1.58;;;;;;;24.47;58.01;98702.72;2070307;28;20496;-52
2023/06/18 00:29:29;;;;;;;3.03;1.85;;;;;;;24.48;57.61;98697.06;2070579;28;20160;-54
2023/06/18 00:30:31;;;;;;;1.70;1.60;;;;;;;24.47;57.52;98703.56;2069587;28;20054;-54
2023/06/18 00:31:33;;;;;;;2.05;1.80;;;;;;;24.48;58.07;98702.47;2069774;28;20053;-51
2023/06/18 00:32:34;;;;;;;1.80;1.70;;;;;;;24.49;57.74;98700.59;2067629;28;20050;-49
2023/06/18 00:33:35;;;;;;;1.90;1.50;;;;;;;24.46;57.54;98701.91;2071402;28;20516;-57
2023/06/18 00:34:36;;;;;;;2.08;1.88;;;;;;;24.46;57.75;98699.19;2069953;28;20053;-52
2023/06/18 00:35:40;;;;;;;2.40;1.42;;;;;;;24.47;58.03;98706.25;2069185;28;20355;-52
2023/06/18 00:36:43;;;;;;;2.28;1.67;;;;;;;24.46;57.81;98701.91;2071878;28;20045;-53
2023/06/18 00:37:44;;;;;;;1.98;1.77;;;;;;;24.47;58.06;98702.72;2071073;28;20057;-55
2023/06/18 00:38:47;;;;;;;1.80;1.58;;;;;;;24.47;57.74;98702.72;2071241;28;20056;-56
2023/06/18 00:39:47;;;;;;;2.42;1.63;;;;;;;24.46;58.04;98696.50;2068909;28;20412;-54
2023/06/18 00:40:49;;;;;;;1.60;1.50;;;;;;;24.45;57.69;98700.25;2069861;28;20046;-57
2023/06/18 00:41:50;;;;;;;1.50;1.40;;;;;;;24.46;58.13;98696.50;2068812;28;20046;-52
2023/06/18 00:42:52;;;;;;;3.08;2.55;;;;;;;24.46;57.67;98701.06;2069374;28;20053;-54
2023/06/18 00:43:53;;;;;;;1.58;1.45;;;;;;;24.47;57.68;98703.56;2070071;28;20727;-51
2023/06/18 00:44:55;;;;;;;1.92;1.80;;;;;;;24.45;58.16;98702.97;2070588;28;20704;-55
2023/06/18 00:45:59;;;;;;;1.73;1.63;;;;;;;24.46;58.19;98701.06;2069735;28;20045;-53
2023/06/18 00:47:02;;;;;;;1.98;1.80;;;;;;;24.46;57.60;98706.50;2074515;28;20052;-55
2023/06/18 00:48:03;;;;;;;3.05;1.90;;;;;;;24.45;58.13;98704.84;2068918;28;20435;-49
2023/06/18 00:49:08;;;;;;;2.22;1.70;;;;;;;24.45;57.79;98704.84;2071060;28;20053;-56
2023/06/18 00:50:12;;;;;;;3.15;2.10;;;;;;;24.45;57.92;98707.56;2071141;28;20060;-52
2023/06/18 00:51:16;;;;;;;2.00;1.70;;;;;;;24.45;58.19;98705.66;2068541;28;20061;-53
2023/06/18 00:52:18;;;;;;;2.03;1.92;;;;;;;24.44;57.95;98709.47;2072005;28;20103;-53
2023/06/18 00:53:20;;;;;;;1.42;1.33;;;;;;;24.45;58.26;98704.84;2070275;28;20061;-56
2023/06/18 00:54:22;;;;;;;2.75;2.08;;;;;;;24.46;57.71;98712.75;2068302;28;20206;-51
2023/06/18 00:55:26;;;;;;;1.90;1.80;;;;;;;24.47;57.96;98705.44;2070875;28;20084;-56
2023/06/18 00:56:29;;;;;;;1.80;1.70;;;;;;;24.46;57.67;98711.91;2070568;28;20531;-55
2023/06/18 00:57:32;;;;;;;1.58;1.40;;;;;;;24.45;58.17;98705.66;2070490;28;20107;-53
2023/06/18 00:58:33;;;;;;;1.83;1.73;;;;;;;24.44;57.76;98709.47;2070274;28;20533;-52
2023/06/18 00:59:37;;;;;;;1.70;1.60;;;;;;;24.46;57.98;98709.19;2070082;28;20061;-55
2023/06/18 01:00:38;;;;;;;1.92;1.70;;;;;;;24.45;57.85;98705.66;2070184;28;20049;-54
2023/06/18 01:01:39;;;;;;;2.03;1.90;;;;;;;24.44;57.94;98714.06;2070231;28;20152;-56
2023/06/18 01:02:45;;;;;;;1.77;1.67;;;;;;;24.43;57.82;98712.34;2072662;28;20045;-57
2023/06/18 01:03:48;;;;;;;1.88;1.73;;;;;;;24.43;57.67;98709.66;2074622;28;20099;-52
2023/06/18 01:04:53;;;;;;;1.77;1.67;;;;;;;24.46;57.78;98711.91;2069753;28;20061;-54
2023/06/18 01:05:58;;;;;;;1.85;1.75;;;;;;;24.45;57.77;98711.09;2067387;28;20155;-49
2023/06/18 01:07:01;;;;;;;1.45;1.35;;;;;;;24.45;57.62;98716.50;2069669;28;20050;-53
2023/06/18 01:08:06;;;;;;;2.00;1.80;;;;;;;24.46;58.21;98714.63;2069660;28;20137;-50
2023/06/18 01:09:08;;;;;;;1.80;1.67;;;;;;;24.45;58.16;98713.81;2069554;28;20049;-52
2023/06/18 01:10:13;;;;;;;1.80;1.65;;;;;;;24.45;58.23;98710.28;2071321;28;20481;-53
2023/06/18 01:11:18;;;;;;;1.92;1.83;;;;;;;24.46;58.05;98711.91;2071786;28;20471;-54
2023/06/18 01:12:21;;;;;;;1.67;1.58;;;;;;;24.44;58.16;98708.63;2069245;28;20591;-50
2023/06/18 01:13:22;;;;;;;2.22;1.73;;;;;;;24.44;58.09;98701.31;2069211;28;20137;-54
2023/06/18 01:14:26;;;;;;;2.15;1.95;;;;;;;24.45;58.09;98710.28;2069813;28;20140;-52
2023/06/18 01:15:27;;;;;;;1.73;1.63;;;;;;;24.44;58.07;98709.47;2069588;28;20052;-54
2023/06/18 01:16:30;;;;;;;2.55;2.35;;;;;;;24.44;58.05;98703.22;2069212;28;20490;-50
2023/06/18 01:17:34;;;;;;;2.05;1.73;;;;;;;24.44;57.77;98706.75;2068954;28;20087;-52
2023/06/18 01:18:41;;;;;;;2.70;1.75;;;;;;;24.44;57.93;98706.75;2070424;28;20046;-53
2023/06/18 01:19:47;;;;;;;2.05;1.85;;;;;;;24.44;58.12;98708.63;2070203;28;20052;-53
2023/06/18 01:20:49;;;;;;;1.60;1.50;;;;;;;24.43;57.72;98706.94;2072637;28;20523;-55
2023/06/18 01:21:56;;;;;;;2.30;2.10;;;;;;;24.44;57.83;98711.34;2068778;28;20050;-49
2023/06/18 01:23:01;;;;;;;1.50;1.40;;;;;;;24.44;58.20;98708.63;2070532;28;20064;-52
2023/06/18 01:24:08;;;;;;;1.50;1.40;;;;;;;24.43;57.93;98704.22;2070020;28;20111;-51
2023/06/18 01:25:13;;;;;;;1.50;1.40;;;;;;;24.42;58.04;98702.59;2066584;28;20053;-55
2023/06/18 01:26:13;;;;;;;2.10;1.88;;;;;;;24.42;58.34;98702.59;2072181;28;20714;-51
2023/06/18 01:27:16;;;;;;;1.63;1.50;;;;;;;24.41;57.92;98696.34;2070077;28;20103;-51
2023/06/18 01:28:18;;;;;;;1.98;1.88;;;;;;;24.42;57.80;98703.41;2071306;28;20065;-52
2023/06/18 01:29:19;;;;;;;1.73;1.63;;;;;;;24.43;57.88;98704.22;2067861;28;20061;-50
2023/06/18 01:30:21;;;;;;;1.63;1.52;;;;;;;24.42;58.11;98700.69;2073061;28;20385;-52
2023/06/18 01:31:23;;;;;;;1.55;1.45;;;;;;;24.42;58.03;98698.00;2069522;28;20046;-54
2023/06/18 01:32:25;;;;;;;1.70;1.60;;;;;;;24.43;57.97;98701.53;2068330;28;20377;-50
2023/06/18 01:33:26;;;;;;;2.35;2.05;;;;;;;24.42;58.28;98699.88;2071130;28;20431;-52
2023/06/18 01:34:29;;;;;;;2.00;1.80;;;;;;;24.43;58.09;98704.22;2072081;28;20045;-49
2023/06/18 01:35:30;;;;;;;2.65;1.90;;;;;;;24.43;58.05;98706.94;2070768;28;20132;-54
2023/06/18 01:36:41;;;;;;;2.58;2.33;;;;;;;24.42;58.23;98697.16;2071021;28;20069;-52
2023/06/18 01:37:57;;;;;;;2.13;1.75;;;;;;;24.42;57.94;98705.31;2069300;28;20499;-50
2023/06/18 01:39:07;;;;;;;2.13;1.95;;;;;;;24.39;58.25;98706.59;2069530;28;20410;-55
2023/06/18 01:40:21;;;;;;;2.72;1.98;;;;;;;24.39;58.28;98703.06;2070357;28;20099;-50
2023/06/18 01:41:27;;;;;;;1.40;1.30;;;;;;;24.40;58.01;98702.00;2069306;28;20056;-55
2023/06/18 01:42:32;;;;;;;2.30;2.05;;;;;;;24.40;57.92;98704.72;2072202;28;20358;-54
2023/06/18 01:43:39;;;;;;;2.15;1.95;;;;;;;24.41;58.23;98698.25;2070379;28;20877;-49
2023/06/18 01:44:44;;;;;;;2.75;2.10;;;;;;;24.40;57.89;98697.41;2068722;28;20049;-55
2023/06/18 01:45:48;;;;;;;1.73;1.60;;;;;;;24.42;58.38;98702.59;2071086;28;20139;-54
2023/06/18 01:46:53;;;;;;;1.83;1.70;;;;;;;24.41;58.35;98700.97;2070684;28;20088;-54
2023/06/18 01:47:57;;;;;;;2.15;1.92;;;;;;;24.41;58.03;98695.53;2069311;28;20072;-53
2023/06/18 01:49:03;;;;;;;2.17;1.92;;;;;;;24.41;58.10;98690.13;2069194;28;20220;-52
2023/06/18 01:50:07;;;;;;;1.80;1.70;;;;;;;24.40;58.21;98696.56;2069837;28;20103;-53
2023/06/18 01:51:10;;;;;;;2.47;2.00;;;;;;;24.42;58.25;98699.88;2068857;28;20128;-51
2023/06/18 01:52:15;;;;;;;1.75;1.65;;;;;;;24.41;57.86;98695.53;2070105;28;20116;-54
2023/06/18 01:53:18;;;;;;;2.28;1.83;;;;;;;24.42;58.36;98694.47;2069175;28;20053;-54
2023/06/18 01:54:24;;;;;;;1.75;1.65;;;;;;;24.42;57.87;98695.28;2072703;28;20586;-54
2023/06/18 01:55:28;;;;;;;1.83;1.42;;;;;;;24.42;58.34;98694.47;2073044;28;20045;-53
2023/06/18 01:56:30;;;;;;;1.70;1.58;;;;;;;24.41;58.14;98693.63;2069384;28;20054;-50
2023/06/18 01:57:32;;;;;;;2.03;1.92;;;;;;;24.41;57.96;98696.34;2069828;28;20567;-53
2023/06/18 01:58:36;;;;;;;1.85;1.70;;;;;;;24.41;58.20;98698.25;2070957;28;20072;-53
2023/06/18 01:59:40;;;;;;;1.80;1.70;;;;;;;24.41;58.05;98695.53;2071142;28;20317;-49
2023/06/18 02:00:42;;;;;;;2.15;1.95;;;;;;;24.41;57.92;98699.06;2072852;28;20046;-52
2023/06/18 02:01:43;;;;;;;1.85;1.75;;;;;;;24.42;57.81;98692.56;2071706;28;20069;-51
2023/06/18 02:02:44;;;;;;;1.73;1.63;;;;;;;24.41;57.99;98693.63;2069654;28;20056;-51
2023/06/18 02:03:45;;;;;;;2.47;1.83;;;;;;;24.44;57.92;98700.50;2072932;28;20530;-55
2023/06/18 02:04:47;;;;;;;2.35;2.13;;;;;;;24.42;58.26;98689.03;2068645;28;20129;-54
2023/06/18 02:05:48;;;;;;;2.10;1.92;;;;;;;24.43;57.94;98683.41;2070890;28;20128;-55
2023/06/18 02:06:49;;;;;;;2.08;1.63;;;;;;;24.42;58.09;98687.16;2067427;28;20049;-56
2023/06/18 02:07:50;;;;;;;2.30;2.10;;;;;;;24.43;58.15;98691.56;2068292;28;20436;-54
2023/06/18 02:08:52;;;;;;;2.28;2.08;;;;;;;24.41;58.15;98690.94;2071564;28;20228;-52
2023/06/18 02:09:55;;;;;;;1.67;1.58;;;;;;;24.41;58.02;98688.22;2069722;28;20134;-50
2023/06/18 02:10:57;;;;;;;2.08;1.85;;;;;;;24.42;58.38;98692.56;2068957;28;20523;-55
2023/06/18 02:11:58;;;;;;;1.83;1.73;;;;;;;24.42;57.94;98695.28;2072835;28;20060;-55
2023/06/18 02:12:59;;;;;;;1.85;1.75;;;;;;;24.41;57.83;98695.53;2069394;28;20064;-51
2023/06/18 02:14:00;;;;;;;1.80;1.55;;;;;;;24.42;58.10;98699.88;2070751;28;20069;-51
2023/06/18 02:15:02;;;;;;;2.58;1.73;;;;;;;24.42;58.04;98697.16;2069848;28;20507;-56
2023/06/18 02:16:03;;;;;;;1.70;1.60;;;;;;;24.41;58.26;98706.38;2068955;28;20232;-54
2023/06/18 02:17:05;;;;;;;1.75;1.63;;;;;;;24.41;58.23;98699.06;2071059;28;20046;-55
2023/06/18 02:18:06;;;;;;;3.28;2.00;;;;;;;24.41;57.87;98699.06;2071016;28;20544;-53
2023/06/18 02:19:08;;;;;;;2.15;1.95;;;;;;;24.42;57.92;98702.59;2070910;28;20252;-53
2023/06/18 02:20:10;;;;;;;2.17;1.90;;;;;;;24.41;57.90;98696.34;2073854;28;20395;-49
2023/06/18 02:21:12;;;;;;;1.60;1.50;;;;;;;24.41;57.95;98690.94;2069051;28;20053;-52
2023/06/18 02:22:13;;;;;;;2.05;1.95;;;;;;;24.42;57.94;98702.59;2073126;28;20081;-54
2023/06/18 02:23:15;;;;;;;1.50;1.40;;;;;;;24.41;58.23;98695.53;2073446;28;20064;-56
2023/06/18 02:24:16;;;;;;;1.90;1.60;;;;;;;24.41;57.81;98700.97;2074401;28;20056;-51
2023/06/18 02:25:28;;;;;;;1.98;1.88;;;;;;;24.40;57.91;98697.41;2072057;28;20168;-51
2023/06/18 02:26:30;;;;;;;2.35;2.15;;;;;;;24.40;58.28;98696.56;2070544;28;20056;-51
2023/06/18 02:27:32;;;;;;;2.03;1.83;;;;;;;24.39;57.97;98705.78;2072307;28;20081;-54
2023/06/18 02:28:33;;;;;;;1.63;1.42;;;;;;;24.39;58.00;98698.47;2073275;28;20143;-51
2023/06/18 02:29:35;;;;;;;1.88;1.77;;;;;;;24.40;58.40;98699.28;2074858;28;20589;-48
2023/06/18 02:30:36;;;;;;;1.80;1.70;;;;;;;24.40;58.13;98704.72;2072282;28;20522;-51
2023/06/18 02:31:38;;;;;;;2.00;1.77;;;;;;;24.40;58.04;98702.00;2072229;28;20144;-55
2023/06/18 02:32:39;;;;;;;1.92;1.83;;;;;;;24.39;58.00;98700.38;2072389;28;20049;-51
2023/06/18 02:33:41;;;;;;;1.95;1.73;;;;;;;24.39;58.53;98706.59;2071664;28;21263;-54
2023/06/18 02:34:42;;;;;;;3.13;1.83;;;;;;;24.40;58.04;98702.81;2073193;28;20049;-53
2023/06/18 02:35:44;;;;;;;1.60;1.50;;;;;;;24.40;57.93;98699.28;2074037;28;20049;-55
2023/06/18 02:36:46;;;;;;;1.83;1.73;;;;;;;24.39;58.35;98706.59;2073392;28;20057;-52
2023/06/18 02:37:48;;;;;;;2.50;1.95;;;;;;;24.40;58.47;98707.41;2073155;28;20119;-48
2023/06/18 02:38:48;;;;;;;1.90;1.70;;;;;;;24.40;58.17;98707.41;2073066;28;20053;-55
2023/06/18 02:39:50;;;;;;;2.25;2.05;;;;;;;24.41;58.15;98706.38;2071288;28;20046;-52
2023/06/18 02:40:52;;;;;;;2.42;1.70;;;;;;;24.41;57.99;98717.22;2072267;28;20140;-50
2023/06/18 02:41:54;;;;;;;1.60;1.50;;;;;;;24.40;58.16;98710.13;2070483;28;20076;-53
2023/06/18 02:42:56;;;;;;;1.67;1.52;;;;;;;24.40;57.89;98712.84;2073668;28;20080;-54
2023/06/18 02:43:58;;;;;;;1.77;1.67;;;;;;;24.38;58.29;98713.09;2073198;28;20068;-52
2023/06/18 02:44:59;;;;;;;1.92;1.75;;;;;;;24.38;58.21;98709.56;2075378;28;20308;-53
2023/06/18 02:46:01;;;;;;;2.22;1.75;;;;;;;24.39;58.15;98713.91;2075688;28;20513;-49
2023/06/18 02:47:02;;;;;;;2.28;2.08;;;;;;;24.39;58.27;98708.50;2071996;28;20579;-52
2023/06/18 02:48:04;;;;;;;1.50;1.33;;;;;;;24.39;58.05;98713.91;2072161;28;20053;-55
2023/06/18 02:49:05;;;;;;;2.47;2.08;;;;;;;24.39;58.06;98713.91;2070942;28;20046;-49
2023/06/18 02:50:08;;;;;;;2.38;2.10;;;;;;;24.39;58.22;98708.50;2072600;28;20060;-49
2023/06/18 02:51:10;;;;;;;2.10;1.90;;;;;;;24.38;58.10;98715.81;2073009;28;20324;-51
2023/06/18 02:52:12;;;;;;;1.83;1.73;;;;;;;24.38;58.17;98706.84;2072588;28;20049;-55
2023/06/18 02:53:13;;;;;;;1.90;1.70;;;;;;;24.37;58.10;98707.91;2066132;28;20235;-54
2023/06/18 02:54:15;;;;;;;1.95;1.85;;;;;;;24.39;58.13;98716.63;2070186;28;20053;-51
2023/06/18 02:55:16;;;;;;;1.90;1.80;;;;;;;24.38;57.97;98715.00;2071615;28;20103;-55
2023/06/18 02:56:19;;;;;;;2.00;1.65;;;;;;;24.39;57.97;98713.91;2072647;28;20056;-51
2023/06/18 02:57:20;;;;;;;1.52;1.35;;;;;;;24.38;58.00;98712.28;2070407;28;20053;-54
2023/06/18 02:58:27;;;;;;;1.65;1.55;;;;;;;24.37;58.49;98708.72;2071951;28;20060;-54
2023/06/18 02:59:28;;;;;;;1.95;1.77;;;;;;;24.35;58.39;98708.16;2071420;28;20084;-51
2023/06/18 03:00:30;;;;;;;1.77;1.67;;;;;;;24.36;58.14;98703.56;2069622;28;20050;-48
2023/06/18 03:01:31;;;;;;;1.98;1.52;;;;;;;24.38;58.17;98706.84;2069292;28;20041;-55
2023/06/18 03:02:33;;;;;;;1.92;1.70;;;;;;;24.38;57.91;98704.16;2072179;28;20334;-51
2023/06/18 03:03:34;;;;;;;2.78;1.85;;;;;;;24.37;58.30;98710.63;2070691;28;20041;-52
2023/06/18 03:04:36;;;;;;;2.28;1.83;;;;;;;24.38;58.29;98706.84;2070162;28;20982;-53
2023/06/18 03:05:36;;;;;;;1.73;1.52;;;;;;;24.38;58.33;98715.00;2071948;28;20140;-54
2023/06/18 03:06:38;;;;;;;2.00;1.90;;;;;;;24.37;58.42;98713.31;2073869;28;20060;-51
2023/06/18 03:07:39;;;;;;;1.92;1.75;;;;;;;24.37;58.10;98713.31;2071666;28;20065;-49
2023/06/18 03:08:41;;;;;;;2.00;1.88;;;;;;;24.38;58.16;98709.56;2070622;28;20108;-51
2023/06/18 03:09:42;;;;;;;2.08;1.70;;;;;;;24.37;58.15;98714.16;2072220;28;20192;-52
2023/06/18 03:10:44;;;;;;;1.77;1.50;;;;;;;24.36;58.46;98712.50;2072306;28;20048;-52
2023/06/18 03:11:46;;;;;;;1.58;1.45;;;;;;;24.36;58.24;98715.22;2070804;28;20077;-51
2023/06/18 03:12:48;;;;;;;1.90;1.80;;;;;;;24.36;58.14;98717.94;2073445;28;20045;-55
2023/06/18 03:13:50;;;;;;;1.88;1.73;;;;;;;24.37;58.48;98713.31;2070557;28;20515;-54
2023/06/18 03:14:52;;;;;;;2.17;1.98;;;;;;;24.36;58.35;98717.94;2070234;28;20515;-51
2023/06/18 03:15:53;;;;;;;1.73;1.63;;;;;;;24.35;58.49;98710.88;2069589;28;20549;-52
2023/06/18 03:16:56;;;;;;;1.70;1.60;;;;;;;24.37;58.54;98716.03;2070031;28;20049;-50
2023/06/18 03:17:57;;;;;;;1.88;1.70;;;;;;;24.35;58.00;98710.88;2071009;28;20126;-55
2023/06/18 03:18:59;;;;;;;1.73;1.60;;;;;;;24.36;58.47;98715.22;2072947;28;20057;-51
2023/06/18 03:20:00;;;;;;;1.88;1.77;;;;;;;24.35;58.25;98704.59;2070968;28;20057;-50
2023/06/18 03:21:02;;;;;;;2.13;1.92;;;;;;;24.35;58.23;98710.88;2069470;28;20056;-53
2023/06/18 03:22:03;;;;;;;1.27;1.17;;;;;;;24.36;58.42;98711.69;2072107;28;20267;-56
2023/06/18 03:23:05;;;;;;;2.10;1.55;;;;;;;24.34;58.34;98702.97;2072512;28;20379;-56
2023/06/18 03:24:06;;;;;;;1.65;1.50;;;;;;;24.36;58.53;98707.09;2068945;28;20061;-53
2023/06/18 03:25:08;;;;;;;1.75;1.52;;;;;;;24.36;58.57;98707.09;2071774;28;20216;-51
2023/06/18 03:26:09;;;;;;;1.55;1.42;;;;;;;24.34;58.21;98702.97;2071059;28;20049;-53
2023/06/18 03:27:13;;;;;;;2.17;1.98;;;;;;;24.35;58.50;98701.88;2073217;28;20053;-52
2023/06/18 03:28:13;;;;;;;1.63;1.52;;;;;;;24.35;58.62;98710.03;2072479;28;20046;-54
2023/06/18 03:29:15;;;;;;;1.73;1.42;;;;;;;24.35;58.18;98704.59;2069426;28;20409;-49
2023/06/18 03:30:16;;;;;;;1.52;1.20;;;;;;;24.36;58.53;98707.09;2072887;28;20042;-52
2023/06/18 03:31:18;;;;;;;2.20;2.00;;;;;;;24.36;58.46;98712.50;2069152;28;20042;-49
2023/06/18 03:32:21;;;;;;;1.38;1.27;;;;;;;24.36;58.61;98708.97;2071539;28;20121;-52
2023/06/18 03:33:23;;;;;;;1.88;1.77;;;;;;;24.33;58.25;98713.00;2070883;28;20145;-55
2023/06/18 03:34:23;;;;;;;1.98;1.80;;;;;;;24.35;58.62;98715.44;2067726;28;20515;-53
2023/06/18 03:35:25;;;;;;;1.23;1.15;;;;;;;24.34;58.23;98720.03;2070311;28;20056;-53
2023/06/18 03:36:28;;;;;;;1.63;1.52;;;;;;;24.33;58.50;98712.16;2072914;28;20060;-52
2023/06/18 03:37:29;;;;;;;1.58;1.48;;;;;;;24.34;58.33;98716.53;2074862;28;20112;-53
2023/06/18 03:38:31;;;;;;;1.80;1.70;;;;;;;24.34;58.25;98708.38;2072077;28;20480;-53
2023/06/18 03:39:31;;;;;;;2.17;1.65;;;;;;;24.32;58.47;98716.75;2069168;28;20129;-54
2023/06/18 03:40:33;;;;;;;2.55;1.85;;;;;;;24.34;58.55;98716.53;2072749;28;20055;-52
2023/06/18 03:41:34;;;;;;;2.20;2.00;;;;;;;24.34;58.42;98719.22;2070734;28;20108;-51
2023/06/18 03:42:37;;;;;;;2.15;1.95;;;;;;;24.36;58.42;98717.94;2070544;28;20059;-53
2023/06/18 03:43:38;;;;;;;2.28;2.08;;;;;;;24.35;58.56;98718.16;2071292;28;20081;-53
2023/06/18 03:44:40;;;;;;;1.60;1.50;;;;;;;24.33;58.25;98714.88;2070904;28;20053;-53
2023/06/18 03:45:40;;;;;;;1.70;1.60;;;;;;;24.34;58.44;98716.53;2072965;28;20049;-54
2023/06/18 03:46:42;;;;;;;2.47;2.08;;;;;;;24.33;58.07;98709.47;2070348;28;20385;-50
2023/06/18 03:47:43;;;;;;;1.50;1.40;;;;;;;24.33;58.38;98701.31;2073867;28;20143;-53
2023/06/18 03:48:45;;;;;;;1.40;1.30;;;;;;;24.34;58.17;98709.19;2071304;28;20054;-51
2023/06/18 03:49:46;;;;;;;3.35;1.73;;;;;;;24.33;58.58;98710.28;2070017;28;20052;-53
2023/06/18 03:50:47;;;;;;;1.88;1.77;;;;;;;24.34;58.23;98716.53;2070717;28;20243;-51
2023/06/18 03:51:48;;;;;;;1.80;1.60;;;;;;;24.34;58.45;98709.19;2071590;28;20046;-53
2023/06/18 03:52:50;;;;;;;2.10;1.90;;;;;;;24.35;58.44;98718.16;2071404;28;20052;-53
2023/06/18 03:53:51;;;;;;;1.80;1.70;;;;;;;24.34;58.28;98713.81;2070153;28;20253;-53
2023/06/18 03:54:53;;;;;;;2.05;1.85;;;;;;;24.34;58.27;98716.53;2072294;28;20049;-51
2023/06/18 03:55:53;;;;;;;1.55;1.42;;;;;;;24.33;58.33;98717.59;2071362;28;20103;-52
2023/06/18 03:56:55;;;;;;;2.08;1.88;;;;;;;24.33;58.18;98723.84;2070973;28;20057;-49
2023/06/18 03:57:57;;;;;;;3.63;1.30;;;;;;;24.34;58.60;98722.75;2071356;28;20072;-54
2023/06/18 03:58:59;;;;;;;3.17;1.70;;;;;;;24.32;58.30;98719.44;2070009;28;20052;-50
2023/06/18 04:00:00;;;;;;;1.60;1.40;;;;;;;24.31;58.46;98718.63;2068985;28;20500;-49
2023/06/18 04:01:02;;;;;;;1.30;1.20;;;;;;;24.31;58.42;98724.06;2068505;28;20245;-54
2023/06/18 04:02:03;;;;;;;2.15;1.77;;;;;;;24.33;58.15;98723.00;2070731;28;20060;-50
2023/06/18 04:03:05;;;;;;;1.65;1.55;;;;;;;24.31;58.73;98718.63;2069242;28;20050;-53
2023/06/18 04:04:07;;;;;;;1.45;1.35;;;;;;;24.31;58.62;98715.09;2071846;28;20591;-52
2023/06/18 04:05:10;;;;;;;1.65;1.55;;;;;;;24.29;58.20;98712.66;2070397;28;20174;-54
2023/06/18 04:06:11;;;;;;;1.88;1.75;;;;;;;24.29;58.38;98715.38;2070349;28;20075;-55
2023/06/18 04:07:12;;;;;;;1.60;1.50;;;;;;;24.30;58.53;98716.19;2069105;28;20060;-56
2023/06/18 04:08:13;;;;;;;1.67;1.58;;;;;;;24.29;58.37;98712.66;2071313;28;20053;-54
2023/06/18 04:09:15;;;;;;;1.88;1.70;;;;;;;24.29;58.43;98709.09;2069774;28;20079;-51
2023/06/18 04:10:16;;;;;;;2.40;1.50;;;;;;;24.29;58.48;98714.50;2071534;28;20523;-51
2023/06/18 04:11:18;;;;;;;1.60;1.50;;;;;;;24.29;58.67;98722.66;2070971;28;20054;-54
2023/06/18 04:12:19;;;;;;;1.60;1.50;;;;;;;24.27;58.48;98717.47;2071242;28;20277;-52
2023/06/18 04:13:23;;;;;;;1.80;1.70;;;;;;;24.29;58.49;98719.94;2070901;28;20056;-52
2023/06/18 04:14:23;;;;;;;2.25;1.90;;;;;;;24.29;58.69;98722.66;2072484;28;20415;-49
2023/06/18 04:15:25;;;;;;;1.60;1.50;;;;;;;24.31;58.59;98731.38;2069556;28;20049;-50
2023/06/18 04:16:26;;;;;;;1.70;1.60;;;;;;;24.28;58.71;98732.66;2072029;28;20088;-56
2023/06/18 04:17:28;;;;;;;1.73;1.52;;;;;;;24.28;58.62;98729.13;2072803;28;20042;-51
2023/06/18 04:18:29;;;;;;;1.83;1.73;;;;;;;24.27;58.39;98736.44;2070163;28;20045;-51
2023/06/18 04:19:31;;;;;;;1.40;1.23;;;;;;;24.27;58.51;98733.75;2068246;28;20508;-51
2023/06/18 04:20:32;;;;;;;1.45;1.35;;;;;;;24.28;58.41;98731.84;2069636;28;20049;-49
2023/06/18 04:21:35;;;;;;;1.48;1.38;;;;;;;24.29;58.56;98731.63;2071733;28;20293;-55
2023/06/18 04:22:35;;;;;;;1.70;1.60;;;;;;;24.28;58.37;98732.66;2070940;28;20061;-51
2023/06/18 04:23:37;;;;;;;1.58;1.48;;;;;;;24.28;58.50;98729.13;2071176;28;20045;-49
2023/06/18 04:24:38;;;;;;;1.63;1.52;;;;;;;24.27;58.70;98728.31;2070256;28;20057;-49
2023/06/18 04:25:40;;;;;;;1.80;1.70;;;;;;;24.28;58.29;98721.81;2070907;28;20053;-54
2023/06/18 04:26:41;;;;;;;2.20;1.67;;;;;;;24.28;58.45;98721.81;2067442;28;20042;-54
2023/06/18 04:27:43;;;;;;;1.75;1.65;;;;;;;24.28;58.62;98724.53;2071304;28;20072;-51
2023/06/18 04:28:45;;;;;;;2.35;1.80;;;;;;;24.29;58.43;98726.19;2069233;28;20552;-55
2023/06/18 04:29:47;;;;;;;1.73;1.63;;;;;;;24.28;58.72;98726.44;2070318;28;20412;-51
2023/06/18 04:30:48;;;;;;;1.60;1.50;;;;;;;24.27;58.55;98725.59;2069673;28;20054;-49
2023/06/18 04:31:50;;;;;;;1.70;1.60;;;;;;;24.27;58.36;98730.22;2069504;28;20323;-54
2023/06/18 04:32:51;;;;;;;1.73;1.63;;;;;;;24.26;58.55;98729.38;2066979;28;20394;-49
2023/06/18 04:33:53;;;;;;;2.00;1.80;;;;;;;24.27;58.63;98728.31;2070899;28;20055;-51
2023/06/18 04:34:54;;;;;;;1.80;1.70;;;;;;;24.28;58.50;98727.25;2070214;28;20432;-52
2023/06/18 04:35:55;;;;;;;1.73;1.55;;;;;;;24.27;58.37;98736.44;2071072;28;20122;-51
2023/06/18 04:36:56;;;;;;;1.83;1.60;;;;;;;24.28;58.62;98737.28;2070380;28;20081;-52
2023/06/18 04:37:58;;;;;;;1.60;1.50;;;;;;;24.27;58.62;98738.34;2070599;28;20427;-54
2023/06/18 04:38:59;;;;;;;1.50;1.40;;;;;;;24.27;58.48;98730.22;2070175;28;20132;-49
2023/06/18 04:40:00;;;;;;;1.55;1.42;;;;;;;24.28;58.55;98734.56;2072083;28;20643;-54
2023/06/18 04:41:01;;;;;;;1.50;1.40;;;;;;;24.29;58.30;98738.91;2069032;28;20149;-54
2023/06/18 04:42:03;;;;;;;2.25;1.70;;;;;;;24.28;58.75;98732.66;2069989;28;20428;-50
2023/06/18 04:43:04;;;;;;;2.10;2.00;;;;;;;24.26;58.42;98729.38;2070369;28;20295;-52
2023/06/18 04:44:08;;;;;;;1.40;1.30;;;;;;;24.28;58.85;98738.09;2070362;28;20132;-49
2023/06/18 04:45:09;;;;;;;1.45;1.30;;;;;;;24.25;58.63;98732.34;2071734;28;20085;-50
2023/06/18 04:46:11;;;;;;;1.92;1.55;;;;;;;24.25;58.34;98730.44;2071715;28;20049;-52
2023/06/18 04:47:12;;;;;;;2.33;1.90;;;;;;;24.26;58.75;98729.38;2069756;28;20057;-54
2023/06/18 04:48:15;;;;;;;1.60;1.50;;;;;;;24.26;58.89;98728.53;2072091;28;20458;-50
2023/06/18 04:49:15;;;;;;;2.38;1.80;;;;;;;24.26;58.65;98733.97;2069882;28;20057;-49
2023/06/18 04:50:17;;;;;;;1.65;1.30;;;;;;;24.25;58.60;98733.16;2069763;28;20412;-53
2023/06/18 04:51:18;;;;;;;3.38;1.25;;;;;;;24.25;58.63;98732.34;2068407;28;20045;-56
2023/06/18 04:52:20;;;;;;;2.10;1.80;;;;;;;24.25;58.81;98733.16;2070054;28;20054;-55
2023/06/18 04:53:21;;;;;;;1.58;1.48;;;;;;;24.25;58.85;98732.34;2070148;28;20053;-51